Time;durP1;ratioP1;P1;durP2;ratioP2;P2;SDS_P1;SDS_P2;PMS_P1;PMS_P2;Temp;Humidity;BMP_temperature;BMP_pressure;BME280_temperature;BME280_humidity;BME280_pressure;Samples;Min_cycle;Max_cycle;Signal;HPM_P1;HPM_P2
2023/07/11 00:00:16;;;;;;;2.75;1.50;;;19.30;99.90;;;;;;5095293;28;20070;-51
2023/07/11 00:02:47;;;;;;;4.05;1.58;;;19.40;99.90;;;;;;5094786;28;20491;-54
2023/07/11 00:05:14;;;;;;;2.95;1.30;;;19.30;99.90;;;;;;5094802;28;20039;-54
2023/07/11 00:07:40;;;;;;;3.20;1.40;;;19.40;99.90;;;;;;5095010;28;20032;-54
2023/07/11 00:10:07;;;;;;;3.00;1.58;;;19.30;99.90;;;;;;5094978;28;20036;-53
2023/07/11 00:12:33;;;;;;;2.72;1.33;;;19.30;99.90;;;;;;5094794;28;20039;-55
2023/07/11 00:14:59;;;;;;;3.97;1.60;;;19.30;99.90;;;;;;5094791;28;20032;-51
2023/07/11 00:17:25;;;;;;;3.70;1.98;;;19.30;99.90;;;;;;5094844;28;20024;-55
2023/07/11 00:19:53;;;;;;;3.92;1.52;;;19.30;99.90;;;;;;5094846;28;20028;-55
2023/07/11 00:22:19;;;;;;;3.25;1.27;;;19.30;99.90;;;;;;5094581;28;20086;-54
2023/07/11 00:24:48;;;;;;;2.97;1.25;;;19.30;99.90;;;;;;5094520;28;20111;-52
2023/07/11 00:27:15;;;;;;;3.33;1.55;;;19.30;99.90;;;;;;5094674;28;20024;-54
2023/07/11 00:29:40;;;;;;;2.42;1.30;;;19.40;99.90;;;;;;5093037;28;20042;-55
2023/07/11 00:32:08;;;;;;;2.70;1.50;;;19.40;99.90;;;;;;5092858;28;20028;-55
2023/07/11 00:34:35;;;;;;;3.33;1.50;;;19.50;99.90;;;;;;5093050;28;20444;-52
2023/07/11 00:37:01;;;;;;;4.30;1.50;;;19.60;99.90;;;;;;5093061;28;20028;-54
2023/07/11 00:39:29;;;;;;;4.22;1.30;;;19.70;99.90;;;;;;5093079;28;20396;-53
2023/07/11 00:41:55;;;;;;;3.70;1.35;;;19.70;99.90;;;;;;5092809;28;20035;-51
2023/07/11 00:44:21;;;;;;;2.30;1.08;;;19.70;99.90;;;;;;5094214;28;20040;-55
2023/07/11 00:46:47;;;;;;;2.85;1.25;;;19.60;99.90;;;;;;5093028;28;20089;-54
2023/07/11 00:49:16;;;;;;;2.85;1.38;;;19.70;99.90;;;;;;5093040;28;20114;-55
2023/07/11 00:51:44;;;;;;;;;;;19.70;99.90;;;;;;5093339;28;20115;-55
2023/07/11 00:54:13;;;;;;;2.92;1.80;;;19.70;99.90;;;;;;5094193;28;20373;-54
2023/07/11 00:56:40;;;;;;;;;;;19.70;99.90;;;;;;5093471;28;20130;-55
2023/07/11 00:59:08;;;;;;;4.10;2.15;;;19.70;99.90;;;;;;5092693;28;19916;-52
2023/07/11 01:01:34;;;;;;;7.15;3.13;;;19.70;99.90;;;;;;5093656;28;20032;-54
2023/07/11 01:04:01;;;;;;;4.78;1.88;;;19.70;99.90;;;;;;5092479;28;20027;-54
2023/07/11 01:06:30;;;;;;;4.30;1.48;;;19.70;99.90;;;;;;5094220;28;20491;-54
2023/07/11 01:08:57;;;;;;;5.43;2.78;;;19.80;99.90;;;;;;5092774;28;20130;-54
2023/07/11 01:11:25;;;;;;;5.35;1.90;;;19.70;99.90;;;;;;5093970;28;20020;-55
2023/07/11 01:13:51;;;;;;;4.60;2.03;;;19.70;99.90;;;;;;5093714;28;20024;-51
2023/07/11 01:16:17;;;;;;;6.00;2.05;;;19.70;99.90;;;;;;5094167;28;20081;-53
2023/07/11 01:18:43;;;;;;;4.63;1.75;;;19.60;99.90;;;;;;5093935;28;20054;-52
2023/07/11 01:21:14;;;;;;;3.95;1.88;;;19.60;99.90;;;;;;5092681;28;20028;-51
2023/07/11 01:23:40;;;;;;;4.78;2.30;;;19.60;99.90;;;;;;5092382;28;20036;-54
2023/07/11 01:26:07;;;;;;;5.20;2.00;;;19.60;99.90;;;;;;5093681;28;20038;-55
2023/07/11 01:28:33;;;;;;;3.10;1.73;;;19.60;99.90;;;;;;5093666;28;20055;-53
2023/07/11 01:30:59;;;;;;;7.22;2.85;;;19.60;99.90;;;;;;5093686;28;20081;-51
2023/07/11 01:33:26;;;;;;;5.15;2.20;;;19.60;99.90;;;;;;5092198;28;20028;-54
2023/07/11 01:35:53;;;;;;;3.70;1.73;;;19.50;99.90;;;;;;5093396;28;20043;-53
2023/07/11 01:38:22;;;;;;;5.15;1.40;;;19.50;99.90;;;;;;5093654;28;20024;-55
2023/07/11 01:40:48;;;;;;;2.53;1.50;;;19.50;99.90;;;;;;5093621;28;20416;-51
2023/07/11 01:43:18;;;;;;;3.08;1.20;;;19.50;99.90;;;;;;5093159;28;20103;-49
2023/07/11 01:45:44;;;;;;;5.07;1.20;;;19.50;99.90;;;;;;5093238;28;20051;-49
2023/07/11 01:48:09;;;;;;;3.25;1.52;;;19.40;99.90;;;;;;5092132;28;20511;-52
2023/07/11 01:50:35;;;;;;;3.40;1.40;;;19.20;99.90;;;;;;5091895;28;20048;-51
2023/07/11 01:53:01;;;;;;;5.80;1.70;;;19.10;99.90;;;;;;5091426;28;20114;-53
2023/07/11 01:55:27;;;;;;;2.83;1.67;;;19.00;99.90;;;;;;5091484;28;20357;-53
2023/07/11 01:57:52;;;;;;;5.50;1.60;;;19.00;99.90;;;;;;5093021;28;20604;-50
2023/07/11 02:00:18;;;;;;;4.35;1.60;;;18.90;99.90;;;;;;5091711;28;20088;-54
2023/07/11 02:02:50;;;;;;;7.03;1.88;;;18.80;99.90;;;;;;5093139;28;20040;-50
2023/07/11 02:05:19;;;;;;;3.42;1.42;;;18.80;99.90;;;;;;5091380;28;20032;-52
2023/07/11 02:07:45;;;;;;;4.18;1.50;;;18.70;99.90;;;;;;5092803;28;20035;-49
2023/07/11 02:10:11;;;;;;;5.53;2.13;;;18.70;99.90;;;;;;5092287;28;20024;-53
2023/07/11 02:12:36;;;;;;;5.05;1.80;;;18.70;99.90;;;;;;5092287;28;20024;-55
2023/07/11 02:15:02;;;;;;;4.25;1.60;;;18.60;99.90;;;;;;5090147;28;20498;-52
2023/07/11 02:17:28;;;;;;;6.03;2.33;;;18.50;99.90;;;;;;5092697;28;20032;-55
2023/07/11 02:19:54;;;;;;;3.25;1.60;;;18.50;99.90;;;;;;5092492;28;20454;-54
2023/07/11 02:22:22;;;;;;;3.88;1.90;;;18.40;99.90;;;;;;5092279;28;20124;-54
2023/07/11 02:24:47;;;;;;;5.63;1.58;;;18.30;99.90;;;;;;5090939;28;20031;-54
2023/07/11 02:27:13;;;;;;;2.72;1.55;;;18.40;99.90;;;;;;5092289;28;20104;-51
2023/07/11 02:29:38;;;;;;;5.18;1.60;;;18.40;99.90;;;;;;5092249;28;20028;-52
2023/07/11 02:32:04;;;;;;;3.80;1.77;;;18.40;99.90;;;;;;5092085;28;20073;-54
2023/07/11 02:34:30;;;;;;;3.58;1.40;;;18.30;99.90;;;;;;5092072;28;20024;-55
2023/07/11 02:36:55;;;;;;;3.55;1.70;;;18.20;99.90;;;;;;5092200;28;20062;-53
2023/07/11 02:39:21;;;;;;;5.30;1.65;;;18.30;99.90;;;;;;5092065;28;20031;-51
2023/07/11 02:41:47;;;;;;;4.63;1.48;;;18.30;99.90;;;;;;5091888;28;20020;-52
2023/07/11 02:44:12;;;;;;;3.08;1.27;;;18.30;99.90;;;;;;5091842;28;20523;-54
2023/07/11 02:46:38;;;;;;;3.03;1.10;;;18.30;99.90;;;;;;5092028;28;20117;-52
2023/07/11 02:49:08;;;;;;;3.10;1.60;;;18.40;99.90;;;;;;5091995;28;20052;-53
2023/07/11 02:51:38;;;;;;;4.28;1.45;;;18.40;99.90;;;;;;5091579;28;20036;-51
2023/07/11 02:54:04;;;;;;;5.75;1.58;;;18.40;99.90;;;;;;5091786;28;20387;-53
2023/07/11 02:56:29;;;;;;;4.30;1.60;;;18.40;99.90;;;;;;5091958;28;20028;-55
2023/07/11 02:58:59;;;;;;;3.00;1.30;;;18.50;99.90;;;;;;5091822;28;20142;-52
2023/07/11 03:01:25;;;;;;;2.65;1.30;;;18.60;99.90;;;;;;5091774;28;20418;-54
2023/07/11 03:03:50;;;;;;;4.05;1.88;;;18.60;99.90;;;;;;5091485;28;20035;-54
2023/07/11 03:06:18;;;;;;;3.17;1.52;;;18.70;99.90;;;;;;5091789;28;20115;-51
2023/07/11 03:08:43;;;;;;;5.38;1.65;;;18.60;99.90;;;;;;5091683;28;20032;-55
2023/07/11 03:11:09;;;;;;;4.10;1.13;;;18.50;99.90;;;;;;5091404;28;20034;-53
2023/07/11 03:13:35;;;;;;;3.70;1.50;;;18.50;99.90;;;;;;5091142;28;20031;-51
2023/07/11 03:16:02;;;;;;;4.28;1.70;;;18.40;99.90;;;;;;5090972;28;20036;-52
2023/07/11 03:18:27;;;;;;;3.72;1.30;;;18.40;99.90;;;;;;5091120;28;20059;-54
2023/07/11 03:21:00;;;;;;;6.75;3.80;;;18.40;99.90;;;;;;5090927;28;20056;-54
2023/07/11 03:23:27;;;;;;;3.88;1.60;;;18.40;99.90;;;;;;5090920;28;20033;-53
2023/07/11 03:25:53;;;;;;;5.10;1.92;;;18.40;99.90;;;;;;5090699;28;20082;-54
2023/07/11 03:28:19;;;;;;;3.00;1.40;;;18.40;99.90;;;;;;5091291;28;20036;-50
2023/07/11 03:30:44;;;;;;;4.50;2.22;;;18.30;99.90;;;;;;5091091;28;20043;-52
2023/07/11 03:33:10;;;;;;;5.15;2.33;;;18.30;99.90;;;;;;5090931;28;20119;-54
2023/07/11 03:35:36;;;;;;;3.00;1.58;;;18.30;99.90;;;;;;5090421;28;20746;-52
2023/07/11 03:38:01;;;;;;;5.20;1.40;;;18.30;99.90;;;;;;5090560;28;20025;-51
2023/07/11 03:40:27;;;;;;;2.08;1.25;;;18.30;99.90;;;;;;5090605;28;20028;-49
2023/07/11 03:42:53;;;;;;;2.55;1.27;;;18.30;99.90;;;;;;5090461;28;20089;-52
2023/07/11 03:45:18;;;;;;;3.38;1.30;;;18.40;99.90;;;;;;5087101;28;20024;-50
2023/07/11 03:47:44;;;;;;;4.03;1.45;;;18.40;99.90;;;;;;5083578;28;20055;-51
2023/07/11 03:50:10;;;;;;;3.10;1.40;;;18.50;99.90;;;;;;5087913;28;20024;-50
2023/07/11 03:52:36;;;;;;;5.28;1.60;;;18.50;99.90;;;;;;5087424;28;20039;-49
2023/07/11 03:55:02;;;;;;;3.67;1.55;;;18.60;99.90;;;;;;5086030;28;20028;-53
2023/07/11 03:57:27;;;;;;;3.30;1.48;;;18.60;99.90;;;;;;5087975;28;20023;-52
2023/07/11 03:59:53;;;;;;;1.80;1.30;;;18.60;99.90;;;;;;5087620;28;20116;-50
2023/07/11 04:02:19;;;;;;;3.58;1.40;;;18.60;99.90;;;;;;5087984;28;20024;-51
2023/07/11 04:04:44;;;;;;;2.47;1.40;;;18.70;99.90;;;;;;5087623;28;20055;-51
2023/07/11 04:07:10;;;;;;;3.55;1.63;;;18.70;99.90;;;;;;5087733;28;20028;-52
2023/07/11 04:09:38;;;;;;;3.72;1.30;;;18.70;99.90;;;;;;5087684;28;20055;-49
2023/07/11 04:12:04;;;;;;;1.83;1.07;;;18.70;99.90;;;;;;5087489;28;20506;-49
2023/07/11 04:14:30;;;;;;;3.97;1.70;;;18.70;99.90;;;;;;5087808;28;20541;-50
2023/07/11 04:16:55;;;;;;;2.42;1.23;;;18.80;99.90;;;;;;5088038;28;20532;-50
2023/07/11 04:19:21;;;;;;;3.25;1.42;;;18.80;99.90;;;;;;5088544;28;20028;-54
2023/07/11 04:21:46;;;;;;;4.38;1.70;;;18.80;99.90;;;;;;5088247;28;20020;-51
2023/07/11 04:24:12;;;;;;;4.93;2.10;;;18.80;99.90;;;;;;5088102;28;20469;-54
2023/07/11 04:26:38;;;;;;;4.30;1.90;;;18.80;99.90;;;;;;5088094;28;20066;-50
2023/07/11 04:29:04;;;;;;;5.72;1.83;;;18.90;99.90;;;;;;5088348;28;20036;-50
2023/07/11 04:31:29;;;;;;;2.80;1.40;;;18.90;99.90;;;;;;5087645;28;20050;-52
2023/07/11 04:33:55;;;;;;;6.03;1.77;;;18.90;99.90;;;;;;5087843;28;20028;-51
2023/07/11 04:36:20;;;;;;;3.70;1.50;;;18.90;99.90;;;;;;5088397;28;20537;-52
2023/07/11 04:38:46;;;;;;;2.90;1.30;;;18.90;99.90;;;;;;5091658;28;20035;-53
2023/07/11 04:41:12;;;;;;;5.43;1.70;;;19.00;99.90;;;;;;5091665;28;20468;-54
2023/07/11 04:43:37;;;;;;;5.63;1.60;;;19.10;99.90;;;;;;5091516;28;20028;-53
2023/07/11 04:46:05;;;;;;;4.82;1.40;;;19.20;99.90;;;;;;5091712;28;20031;-53
2023/07/11 04:48:31;;;;;;;3.35;1.50;;;19.30;99.90;;;;;;5091672;28;20020;-53
2023/07/11 04:51:03;;;;;;;3.55;1.35;;;19.30;99.90;;;;;;5091596;28;20123;-51
2023/07/11 04:53:30;;;;;;;4.40;1.70;;;19.40;99.90;;;;;;5091482;28;20081;-54
2023/07/11 04:55:57;;;;;;;3.20;1.60;;;19.50;99.90;;;;;;5091484;28;20058;-52
2023/07/11 04:58:24;;;;;;;4.57;1.98;;;19.60;99.90;;;;;;5091827;28;20072;-52
2023/07/11 05:00:50;;;;;;;2.58;1.20;;;19.70;99.90;;;;;;5091365;28;20066;-51
2023/07/11 05:03:16;;;;;;;5.68;1.55;;;19.70;99.90;;;;;;5091404;28;20079;-49
2023/07/11 05:05:42;;;;;;;5.13;1.40;;;19.80;99.90;;;;;;5091289;28;20031;-52
2023/07/11 05:08:08;;;;;;;4.40;1.55;;;19.90;99.90;;;;;;5091343;28;20039;-50
2023/07/11 05:10:33;;;;;;;3.08;1.50;;;20.00;99.90;;;;;;5091328;28;20031;-54
2023/07/11 05:12:59;;;;;;;2.80;1.58;;;20.00;99.90;;;;;;5091159;28;20024;-52
2023/07/11 05:15:24;;;;;;;3.58;1.30;;;20.20;99.90;;;;;;5091455;28;20477;-52
2023/07/11 05:17:50;;;;;;;4.65;1.40;;;20.30;99.90;;;;;;5090005;28;20020;-53
2023/07/11 05:20:16;;;;;;;6.88;2.65;;;20.40;99.90;;;;;;5089255;22;20496;-49
2023/07/11 05:22:41;;;;;;;5.28;1.60;;;20.50;99.90;;;;;;5070660;28;20033;-48
2023/07/11 05:25:07;;;;;;;7.47;1.73;;;20.60;99.90;;;;;;5070609;28;20029;-49
2023/07/11 05:27:33;;;;;;;5.72;1.65;;;20.70;99.90;;;;;;5070997;28;20445;-54
2023/07/11 05:29:58;;;;;;;3.47;1.45;;;20.80;99.90;;;;;;5070678;28;20060;-53
2023/07/11 05:32:24;;;;;;;3.33;1.52;;;20.90;99.90;;;;;;5069383;28;20025;-51
2023/07/11 05:34:50;;;;;;;3.40;1.50;;;20.80;99.90;;;;;;5070735;28;20024;-53
2023/07/11 05:37:15;;;;;;;3.42;1.73;;;20.80;99.90;;;;;;5070878;28;20021;-52
2023/07/11 05:39:41;;;;;;;3.58;1.55;;;20.90;99.90;;;;;;5069271;28;20078;-51
2023/07/11 05:42:06;;;;;;;4.15;1.50;;;20.90;99.90;;;;;;5070685;28;20111;-51
2023/07/11 05:44:32;;;;;;;7.57;1.67;;;21.00;99.90;;;;;;5070710;28;20436;-52
2023/07/11 05:46:58;;;;;;;5.07;2.67;;;21.10;99.90;;;;;;5070500;28;20447;-52
2023/07/11 05:49:23;;;;;;;5.35;1.60;;;21.20;99.90;;;;;;5070812;28;20490;-52
2023/07/11 05:51:49;;;;;;;4.80;1.70;;;21.30;99.90;;;;;;5069335;28;20044;-51
2023/07/11 05:54:15;;;;;;;3.75;1.70;;;21.40;99.90;;;;;;5069836;28;20036;-54
2023/07/11 05:56:41;;;;;;;2.97;1.63;;;21.40;99.90;;;;;;5070399;28;20111;-53
2023/07/11 05:59:07;;;;;;;3.50;1.67;;;21.50;99.90;;;;;;5070383;28;20115;-54
2023/07/11 06:01:32;;;;;;;3.65;2.10;;;21.60;99.90;;;;;;5069992;28;20479;-52
2023/07/11 06:04:04;;;;;;;3.55;1.40;;;21.70;99.90;;;;;;5069708;28;20035;-51
2023/07/11 06:06:30;;;;;;;4.60;1.60;;;21.80;99.90;;;;;;5068930;28;20024;-49
2023/07/11 06:08:56;;;;;;;2.40;1.40;;;21.80;99.90;;;;;;5069530;28;20028;-53
2023/07/11 06:11:21;;;;;;;4.32;1.50;;;21.90;99.90;;;;;;5069793;28;20457;-54
2023/07/11 06:13:47;;;;;;;4.15;2.05;;;22.00;99.90;;;;;;5069416;28;20074;-50
2023/07/11 06:16:15;;;;;;;4.28;1.50;;;22.00;99.90;;;;;;5069303;28;20024;-53
2023/07/11 06:18:41;;;;;;;3.47;1.40;;;22.00;99.90;;;;;;5069595;28;20024;-54
2023/07/11 06:21:10;;;;;;;4.55;1.40;;;22.10;99.90;;;;;;5069605;28;20207;-50
2023/07/11 06:23:36;;;;;;;5.28;1.90;;;22.20;99.90;;;;;;5068752;28;20044;-51
2023/07/11 06:26:01;;;;;;;3.55;1.65;;;22.20;99.90;;;;;;5068907;28;20033;-51
2023/07/11 06:28:27;;;;;;;2.95;1.50;;;22.30;99.90;;;;;;5068343;28;20025;-48
2023/07/11 06:30:58;;;;;;;4.72;1.58;;;22.50;99.90;;;;;;5071040;28;20028;-51
2023/07/11 06:33:24;;;;;;;6.05;1.75;;;22.60;99.90;;;;;;5069900;28;20456;-48
2023/07/11 06:35:50;;;;;;;4.63;1.92;;;22.70;99.90;;;;;;5069518;28;20061;-51
2023/07/11 06:38:17;;;;;;;7.03;2.70;;;22.70;99.90;;;;;;5071153;28;20493;-46
2023/07/11 06:40:54;;;;;;;4.22;1.60;;;22.70;99.90;;;;;;5071532;28;20070;-50
2023/07/11 06:43:21;;;;;;;4.78;2.30;;;22.90;99.90;;;;;;5066203;28;20040;-50
2023/07/11 06:45:48;;;;;;;3.22;1.55;;;23.00;99.90;;;;;;5069846;28;20115;-50
2023/07/11 06:48:15;;;;;;;7.07;2.80;;;23.10;99.90;;;;;;5064014;28;20119;-51
2023/07/11 06:50:41;;;;;;;4.38;1.88;;;23.10;99.90;;;;;;5064387;28;20024;-50
2023/07/11 06:53:07;;;;;;;4.25;1.83;;;23.20;99.90;;;;;;5065957;28;20077;-52
2023/07/11 06:55:33;;;;;;;3.47;1.75;;;23.20;99.90;;;;;;5068042;28;20439;-53
2023/07/11 06:57:58;;;;;;;4.78;1.60;;;23.20;99.90;;;;;;5066247;28;20044;-50
2023/07/11 07:00:25;;;;;;;8.20;3.40;;;23.20;99.90;;;;;;5066255;28;20107;-49
2023/07/11 07:02:51;;;;;;;3.92;1.45;;;23.30;99.90;;;;;;5066613;28;20408;-53
2023/07/11 07:05:17;;;;;;;3.95;1.60;;;23.30;99.90;;;;;;5067897;28;20036;-50
2023/07/11 07:07:42;;;;;;;3.90;1.92;;;23.40;99.90;;;;;;5067331;28;20055;-52
2023/07/11 07:10:08;;;;;;;4.13;2.10;;;23.40;99.90;;;;;;5056875;28;20044;-52
2023/07/11 07:12:34;;;;;;;4.45;2.25;;;23.50;99.90;;;;;;5066786;28;20115;-49
2023/07/11 07:14:59;;;;;;;4.43;1.80;;;23.60;99.90;;;;;;5066733;28;20095;-49
2023/07/11 07:17:25;;;;;;;2.60;1.30;;;23.70;99.70;;;;;;5064282;28;20104;-51
2023/07/11 07:19:52;;;;;;;3.38;1.50;;;23.70;99.50;;;;;;5052332;28;20107;-51
2023/07/11 07:22:17;;;;;;;5.95;1.73;;;23.70;99.40;;;;;;5064693;28;20116;-52
2023/07/11 07:24:44;;;;;;;4.75;1.80;;;23.80;99.60;;;;;;5060240;28;20116;-49
2023/07/11 07:27:10;;;;;;;5.28;1.70;;;23.90;99.40;;;;;;5066317;28;20111;-53
2023/07/11 07:29:36;;;;;;;5.75;1.80;;;24.00;98.90;;;;;;5067969;28;20029;-52
2023/07/11 07:32:01;;;;;;;2.72;1.45;;;24.00;99.00;;;;;;5067859;28;20567;-53
2023/07/11 07:34:27;;;;;;;3.85;1.88;;;24.10;99.00;;;;;;5068163;28;20017;-49
2023/07/11 07:36:53;;;;;;;3.70;1.70;;;24.20;98.60;;;;;;5067619;28;20086;-51
2023/07/11 07:39:18;;;;;;;3.45;1.73;;;24.30;98.50;;;;;;5068218;28;20128;-52
2023/07/11 07:41:44;;;;;;;4.75;2.30;;;24.40;98.20;;;;;;5064294;28;20043;-52
2023/07/11 07:44:11;;;;;;;3.35;1.52;;;24.40;98.20;;;;;;5064267;28;20042;-52
2023/07/11 07:46:37;;;;;;;6.30;1.70;;;24.50;98.20;;;;;;5064178;28;20379;-53
2023/07/11 07:49:02;;;;;;;3.60;1.73;;;24.70;98.00;;;;;;5065083;28;20521;-50
2023/07/11 07:51:28;;;;;;;3.33;1.55;;;24.90;97.70;;;;;;5067857;28;20017;-50
2023/07/11 07:53:54;;;;;;;3.58;1.77;;;25.00;97.20;;;;;;5067444;28;20086;-52
2023/07/11 07:56:22;;;;;;;3.47;1.63;;;25.10;97.10;;;;;;5069534;28;20033;-51
2023/07/11 07:58:48;;;;;;;3.47;1.75;;;25.00;97.20;;;;;;5069577;28;20052;-54
2023/07/11 08:01:16;;;;;;;2.75;1.52;;;25.00;96.90;;;;;;5063882;28;20033;-54
2023/07/11 08:03:42;;;;;;;9.75;1.95;;;25.10;96.90;;;;;;5068693;28;20469;-53
2023/07/11 08:06:09;;;;;;;3.92;1.85;;;25.10;97.00;;;;;;5071278;28;20048;-54
2023/07/11 08:08:35;;;;;;;4.20;1.65;;;25.20;96.70;;;;;;5069878;28;20099;-54
2023/07/11 08:11:05;;;;;;;3.72;2.00;;;25.30;96.60;;;;;;5067995;28;20056;-54
2023/07/11 08:13:31;;;;;;;3.22;1.45;;;25.40;96.80;;;;;;5072610;28;20025;-55
2023/07/11 08:15:56;;;;;;;4.78;1.55;;;25.50;96.30;;;;;;5072524;28;20036;-54
2023/07/11 08:18:22;;;;;;;4.10;1.58;;;25.60;96.20;;;;;;5074276;28;20033;-51
2023/07/11 08:20:48;;;;;;;3.28;1.77;;;25.70;95.50;;;;;;5073668;28;20151;-54
2023/07/11 08:23:14;;;;;;;3.75;1.75;;;25.90;95.50;;;;;;5073306;28;20449;-53
2023/07/11 08:25:41;;;;;;;4.03;1.90;;;25.90;94.90;;;;;;5073813;28;20381;-54
2023/07/11 08:28:07;;;;;;;5.80;2.13;;;26.00;94.70;;;;;;5073609;28;20380;-53
2023/07/11 08:30:42;;;;;;;2.60;1.50;;;26.00;94.90;;;;;;5073287;28;20070;-53
2023/07/11 08:33:07;;;;;;;4.50;2.13;;;26.10;94.60;;;;;;5073434;28;20040;-55
2023/07/11 08:35:33;;;;;;;4.93;1.88;;;26.10;94.70;;;;;;5073325;28;20020;-53
2023/07/11 08:38:00;;;;;;;6.10;3.13;;;26.10;94.30;;;;;;5073609;28;20024;-51
2023/07/11 08:40:32;;;;;;;4.80;1.75;;;26.00;94.30;;;;;;5073743;28;20059;-54
2023/07/11 08:43:03;;;;;;;11.45;3.50;;;26.00;94.30;;;;;;5072436;28;20477;-53
2023/07/11 08:45:35;;;;;;;8.55;2.92;;;26.10;94.40;;;;;;5073438;28;20123;-54
2023/07/11 08:48:14;;;;;;;6.15;3.10;;;26.10;94.50;;;;;;5073349;28;20086;-53
2023/07/11 08:51:11;;;;;;;3.40;1.73;;;26.40;94.70;;;;;;5072884;28;20126;-54
2023/07/11 08:53:45;;;;;;;6.82;2.08;;;26.50;93.50;;;;;;5072830;28;20076;-54
2023/07/11 08:56:19;;;;;;;4.10;2.17;;;26.60;93.10;;;;;;5072663;28;20408;-53
2023/07/11 08:58:48;;;;;;;4.75;2.17;;;26.70;93.30;;;;;;5072792;28;20087;-54
2023/07/11 09:01:37;;;;;;;3.50;2.22;;;26.80;92.70;;;;;;5072333;28;20041;-54
2023/07/11 09:04:04;;;;;;;3.22;1.70;;;27.00;92.50;;;;;;5070788;28;20358;-54
2023/07/11 09:06:42;;;;;;;2.90;1.80;;;27.00;92.90;;;;;;5072767;28;20101;-53
2023/07/11 09:09:10;;;;;;;6.20;2.00;;;27.20;92.20;;;;;;5072214;28;20032;-53
2023/07/11 09:12:06;;;;;;;5.13;2.17;;;27.30;91.90;;;;;;5072603;28;20032;-52
2023/07/11 09:15:00;;;;;;;5.88;2.33;;;27.30;91.70;;;;;;5065095;28;20131;-54
2023/07/11 09:18:03;;;;;;;4.97;2.00;;;27.40;91.70;;;;;;5072707;28;20099;-53
2023/07/11 09:20:38;;;;;;;4.10;1.92;;;27.50;91.70;;;;;;5024623;28;20029;-55
2023/07/11 09:23:50;;;;;;;2.78;1.60;;;27.70;90.90;;;;;;5071940;28;20039;-55
2023/07/11 09:26:30;;;;;;;4.93;2.00;;;27.80;91.10;;;;;;5050124;28;20044;-51
2023/07/11 09:29:05;;;;;;;5.78;1.60;;;27.90;91.30;;;;;;5069597;28;20050;-55
2023/07/11 09:31:39;;;;;;;5.85;2.00;;;28.00;89.10;;;;;;5072504;28;20028;-54
2023/07/11 09:34:22;;;;;;;3.42;1.55;;;28.10;86.80;;;;;;5072823;28;20035;-53
2023/07/11 09:36:49;;;;;;;4.00;1.67;;;28.20;86.60;;;;;;5072698;28;20079;-54
2023/07/11 09:39:39;;;;;;;4.22;1.80;;;28.20;87.50;;;;;;5072388;28;20385;-54
2023/07/11 09:42:26;;;;;;;2.72;1.58;;;28.20;87.70;;;;;;5072147;28;20055;-55
2023/07/11 09:45:08;;;;;;;2.75;1.45;;;28.20;88.00;;;;;;5072126;28;20044;-51
2023/07/11 09:47:35;;;;;;;5.32;1.70;;;28.30;87.60;;;;;;5071815;28;20543;-54
2023/07/11 09:50:23;;;;;;;2.65;1.55;;;28.20;86.80;;;;;;5071832;28;20040;-53
2023/07/11 09:52:51;;;;;;;2.90;1.33;;;28.30;85.50;;;;;;5071578;28;20465;-54
2023/07/11 09:55:24;;;;;;;4.25;1.73;;;28.40;85.70;;;;;;5071488;28;20025;-55
2023/07/11 09:57:51;;;;;;;4.68;1.77;;;28.70;78.90;;;;;;5071319;28;20044;-54
2023/07/11 10:00:17;;;;;;;5.60;1.42;;;28.70;78.60;;;;;;5071547;28;20064;-55
2023/07/11 10:02:47;;;;;;;3.35;1.40;;;28.80;78.80;;;;;;5071401;28;20087;-54
2023/07/11 10:05:17;;;;;;;5.25;1.30;;;28.90;78.70;;;;;;5071528;28;20289;-53
2023/07/11 10:07:43;;;;;;;2.80;1.30;;;28.90;77.80;;;;;;5070000;28;20058;-54
2023/07/11 10:10:15;;;;;;;4.82;1.73;;;28.80;78.20;;;;;;5069623;28;20040;-53
2023/07/11 10:12:43;;;;;;;3.53;1.42;;;28.90;82.00;;;;;;5068704;28;20051;-50
2023/07/11 10:15:16;;;;;;;3.10;1.50;;;28.80;78.50;;;;;;5068960;28;20039;-52
2023/07/11 10:17:43;;;;;;;4.32;1.58;;;28.80;79.70;;;;;;5067821;28;20040;-54
2023/07/11 10:20:17;;;;;;;4.50;1.73;;;28.90;80.50;;;;;;5069159;28;20036;-54
2023/07/11 10:22:47;;;;;;;4.60;1.70;;;28.90;80.30;;;;;;5068726;28;20032;-53
2023/07/11 10:25:22;;;;;;;2.85;1.42;;;29.00;81.40;;;;;;5068836;28;20047;-51
2023/07/11 10:28:13;;;;;;;3.33;1.60;;;29.00;82.10;;;;;;5068961;28;20044;-52
2023/07/11 10:30:40;;;;;;;4.50;1.75;;;29.10;81.60;;;;;;5068991;28;20036;-51
2023/07/11 10:33:17;;;;;;;4.28;1.50;;;29.00;80.80;;;;;;5068247;28;20029;-51
2023/07/11 10:35:44;;;;;;;3.40;1.42;;;29.10;79.20;;;;;;5067849;28;20024;-52
2023/07/11 10:38:19;;;;;;;3.33;1.63;;;29.30;79.60;;;;;;5068829;28;20062;-55
2023/07/11 10:40:49;;;;;;;3.97;1.35;;;29.40;77.80;;;;;;5068989;28;20040;-54
2023/07/11 10:43:36;;;;;;;4.93;1.70;;;29.30;77.80;;;;;;5069171;28;20035;-55
2023/07/11 10:46:13;;;;;;;2.80;1.30;;;29.40;77.10;;;;;;5069978;28;20408;-55
2023/07/11 10:48:45;;;;;;;2.85;1.35;;;29.50;77.50;;;;;;5068830;28;20047;-55
2023/07/11 10:51:25;;;;;;;3.03;1.33;;;29.60;75.80;;;;;;5070545;28;20025;-54
2023/07/11 10:54:06;;;;;;;3.38;1.42;;;29.60;74.00;;;;;;5070611;28;20074;-54
2023/07/11 10:56:36;;;;;;;3.35;1.50;;;29.50;70.30;;;;;;5070555;28;20024;-54
2023/07/11 10:59:02;;;;;;;2.28;1.33;;;29.50;70.50;;;;;;5070730;28;20453;-55
2023/07/11 11:01:49;;;;;;;6.15;1.55;;;29.40;69.20;;;;;;5070427;28;20099;-54
2023/07/11 11:04:45;;;;;;;2.55;1.23;;;29.30;70.30;;;;;;5063429;28;20510;-54
2023/07/11 11:07:30;;;;;;;2.80;1.08;;;29.30;70.30;;;;;;5070561;28;20111;-54
2023/07/11 11:10:19;;;;;;;3.97;1.52;;;29.40;71.30;;;;;;5070059;28;20189;-53
2023/07/11 11:13:02;;;;;;;3.88;1.60;;;29.50;70.10;;;;;;5070349;28;20107;-54
2023/07/11 11:15:51;;;;;;;4.72;1.80;;;29.60;71.40;;;;;;5070451;28;20028;-55
2023/07/11 11:21:31;;;;;;;3.75;1.88;;;29.90;70.30;;;;;;5005914;28;20080;-57
2023/07/11 11:24:31;;;;;;;3.53;1.30;;;29.90;70.60;;;;;;5006764;28;20038;-57
2023/07/11 11:27:23;;;;;;;4.20;1.40;;;29.80;72.00;;;;;;4984270;28;20038;-57
2023/07/11 11:30:01;;;;;;;3.15;1.55;;;29.80;72.70;;;;;;5008032;28;20038;-59
2023/07/11 11:32:49;;;;;;;2.65;1.25;;;30.00;73.00;;;;;;5008197;28;20471;-58
2023/07/11 11:35:25;;;;;;;3.25;1.50;;;30.00;72.40;;;;;;5008477;28;20429;-59
2023/07/11 11:38:05;;;;;;;3.40;1.35;;;30.00;72.30;;;;;;5008051;28;20580;-55
2023/07/11 11:40:36;;;;;;;2.55;1.25;;;30.10;73.50;;;;;;5008415;28;20048;-57
2023/07/11 11:43:06;;;;;;;2.72;1.38;;;29.90;74.00;;;;;;5007800;28;20378;-59
2023/07/11 11:45:33;;;;;;;3.35;1.40;;;29.80;73.70;;;;;;5008446;28;20042;-57
2023/07/11 11:48:02;;;;;;;2.35;1.27;;;29.80;74.90;;;;;;5011689;28;20033;-59
2023/07/11 11:50:30;;;;;;;4.97;1.50;;;29.70;75.60;;;;;;5012551;28;20506;-60
2023/07/11 11:53:15;;;;;;;9.10;1.25;;;29.80;74.80;;;;;;5011751;28;20053;-58
2023/07/11 11:55:48;;;;;;;3.90;1.73;;;29.90;74.80;;;;;;5012372;28;20018;-56
2023/07/11 11:58:16;;;;;;;2.83;1.45;;;29.80;74.10;;;;;;5005067;28;20505;-59
2023/07/11 12:00:48;;;;;;;4.63;1.70;;;29.70;75.80;;;;;;5012919;28;20480;-57
2023/07/11 12:03:34;;;;;;;4.00;1.33;;;29.70;75.30;;;;;;5012453;28;20045;-58
2023/07/11 12:06:03;;;;;;;4.47;1.42;;;29.80;75.80;;;;;;5012482;28;20137;-54
2023/07/11 12:08:32;;;;;;;3.58;1.25;;;29.90;76.40;;;;;;5012716;28;20057;-58
2023/07/11 12:11:07;;;;;;;3.25;1.20;;;30.00;73.40;;;;;;5012062;28;20029;-55
2023/07/11 12:13:35;;;;;;;3.42;1.30;;;30.10;70.10;;;;;;5012368;28;20030;-59
2023/07/11 12:16:20;;;;;;;3.35;1.23;;;30.20;70.20;;;;;;5012006;28;20382;-55
2023/07/11 12:18:50;;;;;;;3.00;1.45;;;30.30;70.90;;;;;;5012335;28;20026;-53
2023/07/11 12:21:16;;;;;;;3.05;1.33;;;30.20;69.80;;;;;;5012574;28;20030;-58
2023/07/11 12:23:46;;;;;;;2.60;1.60;;;30.20;70.50;;;;;;5012194;28;20044;-57
2023/07/11 12:26:16;;;;;;;2.63;1.10;;;30.30;70.20;;;;;;5012081;28;20088;-58
2023/07/11 12:28:45;;;;;;;2.20;1.30;;;30.40;70.40;;;;;;5012469;28;20026;-58
2023/07/11 12:31:22;;;;;;;5.03;1.98;;;30.40;70.80;;;;;;5012148;28;20041;-58
2023/07/11 12:34:14;;;;;;;3.00;1.50;;;30.60;71.70;;;;;;5012060;28;20066;-57
2023/07/11 12:36:53;;;;;;;3.17;1.63;;;30.70;70.60;;;;;;5009616;28;20037;-53
2023/07/11 12:40:08;;;;;;;2.65;1.40;;;30.80;70.60;;;;;;5012539;28;20084;-57
2023/07/11 12:42:43;;;;;;;3.15;1.40;;;30.80;70.20;;;;;;5008464;28;20034;-59
2023/07/11 12:45:17;;;;;;;3.58;1.80;;;30.60;70.20;;;;;;5011980;28;20037;-58
2023/07/11 12:47:45;;;;;;;2.58;1.42;;;30.70;70.90;;;;;;5011091;28;20037;-59
2023/07/11 12:50:40;;;;;;;2.97;1.15;;;30.70;71.70;;;;;;5019676;28;20046;-59
2023/07/11 12:53:05;;;;;;;3.30;1.38;;;30.90;70.00;;;;;;5013900;28;20034;-57
2023/07/11 12:55:31;;;;;;;4.85;1.50;;;31.00;69.70;;;;;;5015722;28;20347;-58
2023/07/11 12:57:57;;;;;;;3.53;1.48;;;31.00;69.30;;;;;;5010178;28;20026;-59
2023/07/11 13:00:27;;;;;;;1.95;1.35;;;31.00;69.90;;;;;;5015203;28;20042;-59
2023/07/11 13:03:15;;;;;;;2.17;1.30;;;31.10;68.10;;;;;;5006384;28;20065;-57